Hovedside
METAR-TAF:

METAR-TAF

Lufthavner :

Errachidia, Marokko

breddegrad: 31-56N, lengdegrad: 004-24W, høyde over havet: 1034 m

Gjeldene værobservasjon

Denne rapporten ble laget for 49 minutter siden, klokken 09:00 UTC
Vind 3 kt fra Sør-sørøst
Temperatur 12°C
Luftfuktighet 32%
Trykk 1018 hPa
Sikt: 7000 m

METAR: GMFK 260900Z 16003KT 7000 NSC 12/M04 Q1018 NOSIG

Tid: 10:49 (09:49 UTC)

Varsel

Denne rapporten ble laget for 4 timer og 49 minutter siden, klokken 05:00 UTC
Varsel gyldig fra 26. klokken 06 UTC til 27. klokken 12 UTC
Vind 3 kt fra Vest
Sikt: 7000 m
Midlertidig
fra 26. klokken 16 UTC til 26. klokken 20 UTC
Vind 18 kt fra Nordvest med vindkast opp mot 28 kt

TAF: GMFK 260500Z 2606/2712 26003KT 7000 NSC TEMPO 2616/2620 31018G28KT

Værobservasjoner og værvarsel for over 4000 flyplasser (METAR- og TAF-rapporter).

Tilgjengelige stasjoner er representert av de røde og gule prikkene på kartet.

Hold musepekeren over prikken for å se navnet på stasjonen.

Klikk så for å se værobservasjoner og -varsler.

For å forandre kartet kan du klikke på den grønne knappen med svart kryss for å zoome inn, på den grønne knappen med strek for å zoome ut, eller på de grønne pilene for å se tilstøtende kart.


METAR-TAF: